Terminal Aerodrome Forecast
Issued by NWS Sioux Falls, SD

Home | Current Version | Previous Version | Text Only | Print | Product List | Glossary On
Versions: 1 2 3 4 5 6 7 8 9 10 11 12 13 14 15 16 17 18 19 20 21 22
000
FTUS43 KFSD 050534
TAFHON
TAF
KHON 050534Z 0506/0606 15012KT P6SM SCT120
     FM050700 15011KT P6SM BKN070
     FM051500 17014G20KT P6SM FEW060
     FM052000 17014G20KT P6SM SCT050
     FM060100 15010KT P6SM BKN050
     FM060400 03010KT 4SM TSRA SCT020CB OVC040=

USA.gov is the U.S. government's official web portal to all federal, state and local government web resources and services.